Time;durP1;ratioP1;P1;durP2;ratioP2;P2;SDS_P1;SDS_P2;PMS_P1;PMS_P2;Temp;Humidity;BMP_temperature;BMP_pressure;BME280_temperature;BME280_humidity;BME280_pressure;Samples;Min_cycle;Max_cycle;Signal;HPM_P1;HPM_P2
2020/12/03 00:00:46;;;;;;;44.97;27.23;;;;;;;0.05;92.86;100925.55;1785850;78;21612;-70
2020/12/03 00:03:25;;;;;;;34.88;18.80;;;;;;;-0.02;92.54;100922.17;1761078;81;21565;-71
2020/12/03 00:06:22;;;;;;;43.37;25.50;;;;;;;0.00;92.67;100923.36;1776011;79;21197;-70
2020/12/03 00:09:01;;;;;;;39.83;22.30;;;;;;;0.03;92.75;100926.17;1780531;79;21192;-69
2020/12/03 00:11:33;;;;;;;47.07;24.77;;;;;;;0.00;92.71;100924.68;1798104;79;21601;-70
2020/12/03 00:14:01;;;;;;;42.70;24.55;;;;;;;0.01;92.80;100923.67;1798172;79;21153;-69
2020/12/03 00:16:31;;;;;;;38.10;21.33;;;;;;;0.03;92.83;100923.05;1798045;79;21211;-70
2020/12/03 00:18:59;;;;;;;54.20;29.27;;;;;;;0.05;92.80;100921.58;1797888;79;21177;-70
2020/12/03 00:21:39;;;;;;;42.67;22.60;;;;;;;0.07;92.75;100927.53;1768810;78;21061;-70
2020/12/03 00:24:09;;;;;;;40.70;22.17;;;;;;;0.09;92.76;100916.32;1770347;78;21180;-69
2020/12/03 00:26:36;;;;;;;47.67;27.07;;;;;;;0.05;92.50;100922.38;1767036;79;21205;-70
2020/12/03 00:29:04;;;;;;;45.20;29.27;;;;;;;-0.01;92.53;100918.55;1800675;78;21445;-73
2020/12/03 00:31:32;;;;;;;39.93;24.47;;;;;;;0.02;92.60;100915.25;1767329;79;21225;-72
2020/12/03 00:34:06;;;;;;;36.00;19.47;;;;;;;0.06;92.77;100917.92;1766241;81;21119;-70
2020/12/03 00:36:34;;;;;;;37.35;22.07;;;;;;;0.11;92.76;100909.05;1766691;81;21150;-69
2020/12/03 00:39:05;;;;;;;41.47;25.70;;;;;;;0.11;92.45;100910.37;1766496;81;21748;-71
2020/12/03 00:41:32;;;;;;;43.00;26.77;;;;;;;0.06;92.37;100909.50;1781138;79;21295;-71
2020/12/03 00:44:00;;;;;;;31.13;20.23;;;;;;;0.05;92.31;100909.67;1784844;80;21026;-70
2020/12/03 00:46:30;;;;;;;36.83;22.60;;;;;;;0.08;92.42;100907.55;1782586;80;21538;-70
2020/12/03 00:48:58;;;;;;;48.13;27.77;;;;;;;0.08;92.35;100904.91;1779915;80;21177;-69
2020/12/03 00:51:26;;;;;;;44.73;25.77;;;;;;;0.12;92.31;100904.09;1755133;81;21207;-70
2020/12/03 00:53:55;;;;;;;43.67;28.27;;;;;;;0.14;92.15;100901.66;1755003;81;21870;-71
2020/12/03 00:56:23;;;;;;;45.87;27.57;;;;;;;0.19;92.33;100900.67;1758298;80;21059;-68
2020/12/03 00:58:51;;;;;;;37.97;21.40;;;;;;;0.22;92.21;100899.06;1761403;80;21019;-69
2020/12/03 01:01:19;;;;;;;37.37;22.97;;;;;;;0.26;92.07;100895.62;1776586;80;21331;-70
2020/12/03 01:03:49;;;;;;;50.27;28.07;;;;;;;0.25;91.90;100894.78;1793049;80;21560;-70
2020/12/03 01:06:18;;;;;;;48.00;28.53;;;;;;;0.26;91.76;100891.16;1773294;80;21212;-67
2020/12/03 01:08:45;;;;;;;41.87;24.67;;;;;;;0.25;91.59;100888.66;1764838;80;21178;-69
2020/12/03 01:11:13;;;;;;;32.67;18.50;;;;;;;0.21;91.42;100886.82;1734389;82;21171;-69
2020/12/03 01:13:40;;;;;;;39.17;21.47;;;;;;;0.17;91.37;100888.11;1730561;82;21045;-69
2020/12/03 01:16:13;;;;;;;40.47;26.63;;;;;;;0.19;91.55;100891.94;1723480;83;21106;-69
2020/12/03 01:18:41;;;;;;;45.28;27.48;;;;;;;0.23;91.55;100892.80;1734693;82;21387;-71
2020/12/03 01:21:08;;;;;;;43.43;23.13;;;;;;;0.25;91.41;100891.30;1734256;82;21576;-69
2020/12/03 01:23:36;;;;;;;34.70;19.03;;;;;;;0.26;91.31;100886.36;1734434;82;21122;-69
2020/12/03 01:26:05;;;;;;;37.47;23.07;;;;;;;0.29;91.29;100886.03;1741389;82;21078;-69
2020/12/03 01:28:32;;;;;;;51.93;29.60;;;;;;;0.27;91.16;100882.73;1750335;82;21146;-69
2020/12/03 01:31:03;;;;;;;53.20;26.10;;;;;;;0.24;91.18;100879.89;1716288;82;22131;-68
2020/12/03 01:33:30;;;;;;;50.43;28.67;;;;;;;0.25;91.11;100888.66;1734907;82;21007;-69
2020/12/03 01:35:58;;;;;;;41.87;26.57;;;;;;;0.28;91.13;100885.23;1734665;82;21157;-69
2020/12/03 01:38:25;;;;;;;40.70;26.37;;;;;;;0.25;90.77;100888.66;1707495;82;21175;-68
2020/12/03 01:40:53;;;;;;;33.93;19.63;;;;;;;0.17;90.62;100884.15;1734188;82;21118;-69
2020/12/03 01:43:21;;;;;;;45.37;23.20;;;;;;;0.12;90.74;100889.06;1732697;81;21208;-69
2020/12/03 01:45:57;;;;;;;47.20;26.03;;;;;;;0.11;90.84;100883.92;1705772;82;21226;-67
2020/12/03 01:48:43;;;;;;;32.33;22.37;;;;;;;0.13;90.97;100877.51;1705836;84;21073;-67
2020/12/03 01:51:40;;;;;;;43.67;23.53;;;;;;;0.16;90.94;100879.84;1660644;84;21156;-69
2020/12/03 01:54:12;;;;;;;41.40;24.40;;;;;;;0.11;90.67;100882.59;1705380;84;21169;-68
2020/12/03 01:57:05;;;;;;;36.00;22.53;;;;;;;0.04;90.56;100882.88;1705422;84;22259;-69
2020/12/03 01:59:37;;;;;;;;;;;;;;;0.02;90.63;100883.52;1733243;82;21171;-69
2020/12/03 02:02:05;;;;;;;45.63;25.77;;;;;;;0.02;90.73;100881.70;1783969;80;20135;-70
2020/12/03 02:04:33;;;;;;;45.33;25.27;;;;;;;-0.09;90.60;100878.80;1780535;80;21018;-70
2020/12/03 02:07:06;;;;;;;50.27;29.47;;;;;;;-0.11;90.82;100883.42;1753820;81;21152;-68
2020/12/03 02:09:35;;;;;;;39.63;21.47;;;;;;;-0.05;91.04;100880.15;1753780;81;21022;-70
2020/12/03 02:12:03;;;;;;;47.40;23.23;;;;;;;0.07;91.06;100872.82;1753668;81;21034;-69
2020/12/03 02:14:31;;;;;;;56.67;28.30;;;;;;;0.07;90.81;100872.82;1753791;81;21148;-70
2020/12/03 02:17:00;;;;;;;34.67;20.27;;;;;;;0.11;90.87;100875.98;1757549;80;21118;-74
2020/12/03 02:19:31;;;;;;;37.87;23.67;;;;;;;0.12;90.46;100879.80;1753778;81;21114;-69
2020/12/03 02:22:02;;;;;;;37.97;22.17;;;;;;;0.07;90.37;100878.11;1753480;81;21568;-70
2020/12/03 02:24:36;;;;;;;51.33;27.40;;;;;;;0.03;90.24;100874.11;1754342;80;21113;-70
2020/12/03 02:27:05;;;;;;;37.27;21.77;;;;;;;-0.01;90.22;100873.59;1753737;81;21053;-68
2020/12/03 02:29:33;;;;;;;40.40;24.87;;;;;;;-0.02;90.27;100882.51;1753927;81;21140;-68
2020/12/03 02:32:01;;;;;;;50.07;26.10;;;;;;;-0.07;90.32;100876.01;1738929;80;21652;-70
2020/12/03 02:34:28;;;;;;;45.60;25.37;;;;;;;-0.11;90.30;100875.98;1738294;82;21448;-70
2020/12/03 02:36:58;;;;;;;45.97;22.47;;;;;;;-0.14;90.37;100881.55;1748823;80;21129;-70
2020/12/03 02:39:28;;;;;;;44.83;25.20;;;;;;;-0.16;90.52;100879.08;1754108;80;21153;-70
2020/12/03 02:41:59;;;;;;;54.43;27.57;;;;;;;-0.14;90.66;100878.42;1777312;80;21201;-69
2020/12/03 02:44:26;;;;;;;41.83;24.77;;;;;;;-0.09;90.81;100874.00;1784793;80;21183;-69
2020/12/03 02:46:54;;;;;;;48.93;25.93;;;;;;;-0.08;90.76;100873.85;1766150;80;22423;-69
2020/12/03 02:49:22;;;;;;;42.60;22.80;;;;;;;-0.09;90.75;100874.00;1753851;81;22243;-69
2020/12/03 02:51:51;;;;;;;50.27;26.97;;;;;;;-0.08;90.71;100871.20;1753909;81;21560;-69
2020/12/03 02:54:18;;;;;;;41.67;22.70;;;;;;;-0.15;90.54;100873.30;1753865;81;21165;-69
2020/12/03 02:56:46;;;;;;;45.33;23.90;;;;;;;-0.10;90.85;100877.64;1753892;81;21156;-70
2020/12/03 02:59:14;;;;;;;53.17;33.20;;;;;;;-0.10;90.76;100881.61;1756992;80;21546;-68
2020/12/03 03:01:42;;;;;;;48.37;25.63;;;;;;;-0.12;90.71;100883.08;1783202;80;21026;-69
2020/12/03 03:04:09;;;;;;;58.07;33.60;;;;;;;-0.08;90.84;100889.72;1784463;80;21741;-74
2020/12/03 03:06:37;;;;;;;45.57;24.47;;;;;;;-0.07;90.86;100879.48;1758619;80;21160;-69
2020/12/03 03:09:05;;;;;;;47.50;25.00;;;;;;;-0.01;90.98;100882.86;1769119;80;21136;-70
2020/12/03 03:11:35;;;;;;;42.90;23.90;;;;;;;-0.05;90.70;100878.83;1758155;80;21357;-68
2020/12/03 03:14:03;;;;;;;53.27;29.73;;;;;;;-0.07;90.70;100878.66;1753934;81;21582;-69
2020/12/03 03:16:31;;;;;;;45.10;26.67;;;;;;;-0.09;90.70;100873.51;1768124;80;21185;-69
2020/12/03 03:19:00;;;;;;;54.17;28.30;;;;;;;-0.11;90.82;100875.49;1784893;80;21129;-69
2020/12/03 03:21:27;;;;;;;50.20;27.13;;;;;;;-0.15;90.77;100878.59;1784870;80;21539;-68
2020/12/03 03:23:55;;;;;;;50.93;27.73;;;;;;;-0.16;90.88;100876.92;1783039;80;21419;-70
2020/12/03 03:26:23;;;;;;;50.60;26.73;;;;;;;-0.14;91.11;100874.45;1761063;80;21542;-70
2020/12/03 03:28:51;;;;;;;51.27;26.90;;;;;;;-0.09;91.08;100871.35;1784952;80;21110;-69
2020/12/03 03:31:19;;;;;;;47.17;27.40;;;;;;;-0.11;90.95;100875.49;1784863;80;21157;-70
2020/12/03 03:33:47;;;;;;;33.00;17.30;;;;;;;-0.16;90.95;100880.89;1784960;80;21137;-69
2020/12/03 03:36:16;;;;;;;51.03;26.50;;;;;;;-0.14;91.12;100874.94;1762196;80;21649;-69
2020/12/03 03:38:44;;;;;;;40.37;22.77;;;;;;;-0.11;91.23;100875.49;1755314;80;21161;-69
2020/12/03 03:41:12;;;;;;;42.33;21.87;;;;;;;-0.04;91.26;100875.70;1784856;80;21094;-69
2020/12/03 03:43:39;;;;;;;45.07;25.63;;;;;;;-0.02;91.15;100877.70;1777978;80;22211;-68
2020/12/03 03:46:07;;;;;;;32.73;19.30;;;;;;;-0.01;91.13;100874.92;1768393;81;21135;-69
2020/12/03 03:48:35;;;;;;;42.00;20.77;;;;;;;0.02;91.18;100872.45;1767617;81;21459;-70
2020/12/03 03:51:02;;;;;;;40.33;22.97;;;;;;;0.02;90.97;100872.45;1769934;81;21054;-68
2020/12/03 03:53:30;;;;;;;52.87;25.77;;;;;;;0.01;90.89;100876.07;1764333;81;21153;-69
2020/12/03 03:55:59;;;;;;;38.37;22.10;;;;;;;-0.02;90.83;100871.93;1764284;81;21147;-69
2020/12/03 03:58:27;;;;;;;39.30;25.00;;;;;;;-0.02;90.94;100875.06;1764611;81;21120;-67
2020/12/03 04:00:54;;;;;;;48.00;25.87;;;;;;;-0.02;90.95;100874.58;1763483;81;21580;-69
2020/12/03 04:03:22;;;;;;;52.53;26.40;;;;;;;-0.05;90.93;100875.38;1763902;81;21151;-69
2020/12/03 04:05:53;;;;;;;52.87;27.83;;;;;;;-0.04;91.06;100871.23;1764288;81;20986;-68
2020/12/03 04:08:24;;;;;;;42.37;22.37;;;;;;;-0.03;90.97;100870.75;1762478;81;21115;-70
2020/12/03 04:10:52;;;;;;;46.20;24.47;;;;;;;-0.03;90.99;100870.27;1764469;81;21606;-67
2020/12/03 04:13:22;;;;;;;40.63;24.07;;;;;;;-0.06;90.90;100869.74;1763550;81;21270;-70
2020/12/03 04:15:51;;;;;;;51.77;30.50;;;;;;;-0.16;90.87;100863.70;1747457;81;21506;-69
2020/12/03 04:18:25;;;;;;;53.57;29.30;;;;;;;-0.20;91.11;100869.80;1764123;81;21646;-68
2020/12/03 04:20:48;;;;;;;43.17;24.73;;;;;;;-0.20;91.25;100860.54;1763184;81;21111;-68
2020/12/03 04:23:16;;;;;;;55.53;33.40;;;;;;;-0.19;91.34;100859.53;1748471;81;21615;-70
2020/12/03 04:25:43;;;;;;;49.50;28.33;;;;;;;-0.21;91.29;100861.52;1764536;81;21649;-68
2020/12/03 04:28:11;;;;;;;60.53;34.23;;;;;;;-0.20;91.52;100858.39;1764819;81;21092;-68
2020/12/03 04:30:39;;;;;;;59.57;34.77;;;;;;;-0.22;91.51;100862.98;1764861;81;21111;-68
2020/12/03 04:33:06;;;;;;;50.23;27.27;;;;;;;-0.30;91.77;100858.47;1764386;81;21095;-68
2020/12/03 04:35:37;;;;;;;42.73;23.80;;;;;;;-0.35;91.83;100862.05;1762990;81;21161;-67
2020/12/03 04:38:06;;;;;;;61.03;29.50;;;;;;;-0.33;92.00;100861.88;1762922;81;21386;-68
2020/12/03 04:40:37;;;;;;;49.17;24.50;;;;;;;-0.30;92.13;100862.42;1742636;81;21050;-68
2020/12/03 04:43:29;;;;;;;69.03;35.78;;;;;;;-0.27;92.13;100865.25;1761647;79;21573;-71
2020/12/03 04:46:27;;;;;;;57.67;33.67;;;;;;;-0.32;92.17;100868.34;1781022;80;21141;-70
2020/12/03 04:49:25;;;;;;;50.00;30.50;;;;;;;-0.30;92.40;100870.36;1745298;80;21182;-69
2020/12/03 04:52:34;;;;;;;51.73;30.73;;;;;;;-0.26;92.49;100874.36;1752467;80;21388;-69
2020/12/03 04:55:41;;;;;;;39.03;20.73;;;;;;;-0.27;92.46;100873.17;1783825;80;21243;-70
2020/12/03 04:58:27;;;;;;;54.80;30.33;;;;;;;-0.27;92.67;100877.14;1754209;81;21110;-70
2020/12/03 05:01:12;;;;;;;57.57;31.90;;;;;;;-0.27;92.66;100868.72;1749895;80;21221;-68
2020/12/03 05:04:00;;;;;;;45.50;26.67;;;;;;;-0.28;92.73;100867.05;1753520;80;21164;-70
2020/12/03 05:06:45;;;;;;;45.47;24.77;;;;;;;-0.25;92.75;100870.73;1781915;80;21428;-69
2020/12/03 05:09:30;;;;;;;43.67;22.33;;;;;;;-0.26;92.70;100873.03;1759207;80;21216;-68
2020/12/03 05:12:12;;;;;;;50.87;27.43;;;;;;;-0.25;92.97;100873.38;1754906;81;21176;-69
2020/12/03 05:14:53;;;;;;;57.13;29.70;;;;;;;-0.27;92.82;100871.85;1726488;83;21177;-67
2020/12/03 05:17:48;;;;;;;50.07;26.63;;;;;;;-0.27;92.86;100871.36;1726378;83;21106;-67
2020/12/03 05:20:34;;;;;;;38.80;20.70;;;;;;;-0.26;92.87;100876.16;1757936;81;21203;-68
2020/12/03 05:23:24;;;;;;;55.40;27.53;;;;;;;-0.28;93.00;100876.30;1758053;81;21045;-70
2020/12/03 05:25:54;;;;;;;37.03;21.07;;;;;;;-0.28;93.06;100872.34;1758202;81;21359;-70
2020/12/03 05:28:36;;;;;;;46.63;29.57;;;;;;;-0.29;92.99;100870.70;1777231;80;21159;-70
2020/12/03 05:31:24;;;;;;;53.25;27.70;;;;;;;-0.26;93.04;100873.52;1789355;80;21170;-71
2020/12/03 05:33:52;;;;;;;49.53;28.53;;;;;;;-0.27;93.03;100875.82;1783097;80;22104;-69
2020/12/03 05:36:32;;;;;;;48.50;28.47;;;;;;;-0.30;93.18;100878.77;1783344;80;21137;-70
2020/12/03 05:39:01;;;;;;;55.07;29.93;;;;;;;-0.35;93.20;100879.23;1755929;80;21003;-70
2020/12/03 05:41:35;;;;;;;45.17;26.13;;;;;;;-0.34;93.33;100880.89;1784249;80;21153;-69
2020/12/03 05:44:21;;;;;;;47.73;25.30;;;;;;;-0.33;93.33;100883.85;1785586;80;21310;-71
2020/12/03 05:46:50;;;;;;;39.40;23.03;;;;;;;-0.31;93.42;100881.07;1750426;80;22289;-68
2020/12/03 05:49:21;;;;;;;51.97;28.73;;;;;;;-0.23;93.61;100877.17;1754576;80;21126;-69
2020/12/03 05:52:09;;;;;;;51.87;26.20;;;;;;;-0.18;93.50;100886.31;1733300;82;21120;-69
2020/12/03 05:54:36;;;;;;;47.07;27.53;;;;;;;-0.20;93.41;100883.50;1758056;80;21610;-68
2020/12/03 05:57:04;;;;;;;52.33;28.47;;;;;;;-0.27;93.29;100885.91;1759930;81;21228;-68
2020/12/03 05:59:31;;;;;;;40.60;22.00;;;;;;;-0.34;93.30;100885.34;1795100;80;21583;-67
2020/12/03 06:02:16;;;;;;;48.63;28.03;;;;;;;-0.35;93.47;100895.58;1771650;80;21671;-72
2020/12/03 06:04:52;;;;;;;52.40;27.20;;;;;;;-0.36;93.60;100892.09;1773066;81;21138;-69
2020/12/03 06:07:38;;;;;;;47.53;27.60;;;;;;;-0.36;93.73;100892.58;1772781;81;21104;-76
2020/12/03 06:10:41;;;;;;;42.67;21.60;;;;;;;-0.38;93.84;100895.88;1742779;82;21536;-69
2020/12/03 06:13:35;;;;;;;55.90;29.27;;;;;;;-0.33;94.01;100904.16;1746063;80;21395;-70
2020/12/03 06:16:42;;;;;;;54.83;33.03;;;;;;;-0.33;94.05;100902.84;1773341;80;21182;-68
2020/12/03 06:19:47;;;;;;;44.23;22.03;;;;;;;-0.34;94.19;100895.92;1773414;80;21096;-70
2020/12/03 06:23:13;;;;;;;45.53;26.50;;;;;;;-0.28;94.27;100895.30;1773099;80;21127;-69
2020/12/03 06:26:03;;;;;;;54.23;28.27;;;;;;;-0.34;94.08;100897.24;1773432;80;21101;-69
2020/12/03 06:28:57;;;;;;;49.07;27.33;;;;;;;-0.37;94.16;100897.52;1773350;80;22229;-70
2020/12/03 06:32:03;;;;;;;56.17;28.67;;;;;;;-0.42;94.20;100895.33;1746521;80;21167;-70
2020/12/03 06:34:46;;;;;;;57.80;28.77;;;;;;;-0.45;94.30;100893.00;1773063;81;21137;-69
2020/12/03 06:37:34;;;;;;;56.08;29.57;;;;;;;-0.39;94.53;100899.02;1773155;81;21149;-71
2020/12/03 06:40:06;;;;;;;66.67;35.50;;;;;;;-0.38;94.38;100895.36;1761475;81;21121;-72
2020/12/03 06:42:48;;;;;;;51.63;30.70;;;;;;;-0.43;94.18;100896.82;1739840;81;21376;-68
2020/12/03 06:45:40;;;;;;;40.97;22.00;;;;;;;-0.42;94.26;100899.29;1763607;81;21693;-68
2020/12/03 06:48:38;;;;;;;52.57;28.07;;;;;;;-0.39;94.21;100896.86;1763798;81;21044;-70
2020/12/03 06:51:38;;;;;;;60.83;36.00;;;;;;;-0.40;94.08;100896.02;1764611;81;22233;-68
2020/12/03 06:54:34;;;;;;;72.10;41.53;;;;;;;-0.42;94.01;100894.49;1764649;81;21014;-67
2020/12/03 06:57:40;;;;;;;65.23;33.37;;;;;;;-0.45;94.06;100891.19;1754941;81;21462;-69
2020/12/03 07:00:49;;;;;;;64.17;33.83;;;;;;;-0.38;94.21;100891.92;1764126;81;21137;-69
2020/12/03 07:03:44;;;;;;;67.53;37.50;;;;;;;-0.39;94.07;100892.41;1763783;81;21149;-68
2020/12/03 07:06:48;;;;;;;53.77;30.57;;;;;;;-0.37;94.13;100895.71;1690418;84;21249;-69
2020/12/03 07:10:10;;;;;;;66.17;36.70;;;;;;;-0.31;94.16;100887.19;1837327;76;27307;-69
2020/12/03 07:12:45;;;;;;;56.93;28.80;;;;;;;-0.36;94.05;100897.38;1785037;80;21558;-70
2020/12/03 07:15:57;;;;;;;47.87;26.90;;;;;;;-0.35;94.05;100895.58;1785066;80;21234;-69
2020/12/03 07:18:53;;;;;;;70.87;38.57;;;;;;;-0.35;94.04;100899.05;1784912;80;21034;-70
2020/12/03 07:22:17;;;;;;;59.20;35.80;;;;;;;-0.34;94.18;100894.11;1761119;79;21558;-68
2020/12/03 07:24:47;;;;;;;41.68;23.30;;;;;;;-0.23;94.29;100900.48;1785122;80;21010;-70
2020/12/03 07:27:59;;;;;;;56.87;30.23;;;;;;;-0.16;94.13;100904.69;1785043;80;21618;-71
2020/12/03 07:30:47;;;;;;;51.63;29.20;;;;;;;-0.16;93.97;100899.39;1795975;79;21822;-68
2020/12/03 07:33:24;;;;;;;52.13;30.33;;;;;;;-0.11;94.13;100905.06;1774882;79;21042;-70
2020/12/03 07:36:20;;;;;;;40.40;25.10;;;;;;;-0.14;93.75;100904.86;1814632;79;20936;-70
2020/12/03 07:39:09;;;;;;;44.80;25.20;;;;;;;-0.20;93.37;100898.88;1785608;79;21126;-70
2020/12/03 07:41:58;;;;;;;47.20;27.63;;;;;;;-0.22;93.28;100902.14;1788419;79;21658;-69
2020/12/03 07:44:41;;;;;;;44.40;24.73;;;;;;;-0.25;93.29;100907.74;1817190;78;21188;-70
2020/12/03 07:47:31;;;;;;;37.80;23.50;;;;;;;-0.24;93.34;100912.02;1817139;79;21105;-69
2020/12/03 07:50:20;;;;;;;48.73;28.23;;;;;;;-0.23;93.47;100905.77;1813307;79;21010;-72
2020/12/03 07:53:24;;;;;;;34.37;20.00;;;;;;;-0.22;93.31;100910.56;1889285;76;23216;-71
2020/12/03 07:55:52;;;;;;;44.03;21.03;;;;;;;-0.25;93.42;100911.71;1860064;77;22279;-69
2020/12/03 07:58:36;;;;;;;49.13;30.80;;;;;;;-0.23;93.40;100906.25;1853965;77;21197;-69
2020/12/03 08:01:29;;;;;;;34.83;20.93;;;;;;;-0.24;93.40;100906.73;1783978;80;21031;-70
2020/12/03 08:04:11;;;;;;;50.80;28.92;;;;;;;-0.21;93.64;100917.52;1787715;80;21041;-70
2020/12/03 08:06:38;;;;;;;45.80;27.53;;;;;;;-0.25;93.50;100916.16;1770568;80;21567;-70
2020/12/03 08:09:16;;;;;;;35.90;22.97;;;;;;;-0.27;93.59;100916.79;1705687;81;21581;-69
2020/12/03 08:11:49;;;;;;;52.17;27.53;;;;;;;-0.28;93.60;100917.28;1762214;81;21161;-69
2020/12/03 08:14:43;;;;;;;40.25;24.67;;;;;;;-0.24;93.83;100917.31;1790155;80;20992;-71
2020/12/03 08:17:20;;;;;;;;;;;;;;;-0.15;93.95;100909.83;1808109;78;21020;-70
2020/12/03 08:20:11;;;;;;;40.73;25.17;;;;;;;-0.10;93.90;100904.09;1820802;78;20512;-71
2020/12/03 08:22:45;;;;;;;41.30;23.13;;;;;;;-0.08;93.84;100898.97;1817194;79;21720;-70
2020/12/03 08:25:25;;;;;;;49.53;28.40;;;;;;;-0.11;93.58;100895.81;1815112;79;21395;-70
2020/12/03 08:28:03;;;;;;;40.77;24.93;;;;;;;-0.12;93.65;100892.33;1815515;79;21559;-72
2020/12/03 08:30:50;;;;;;;41.40;22.50;;;;;;;-0.09;93.62;100887.22;1781924;80;21337;-68
2020/12/03 08:33:15;;;;;;;40.60;22.77;;;;;;;-0.12;93.51;100888.36;1773013;80;21561;-69
2020/12/03 08:35:52;;;;;;;39.57;22.47;;;;;;;-0.15;93.37;100885.20;1791283;80;21117;-69
2020/12/03 08:38:22;;;;;;;53.53;30.07;;;;;;;-0.12;93.53;100884.89;1786437;80;21213;-69
2020/12/03 08:40:53;;;;;;;39.93;23.63;;;;;;;-0.11;93.46;100880.78;1762746;81;21112;-69
2020/12/03 08:43:21;;;;;;;35.87;20.33;;;;;;;-0.06;93.55;100883.80;1796371;79;21126;-69
2020/12/03 08:46:07;;;;;;;46.93;23.77;;;;;;;-0.04;93.42;100887.10;1782170;80;21181;-69
2020/12/03 08:48:36;;;;;;;49.18;26.90;;;;;;;-0.05;93.25;100879.34;1794082;80;21193;-70
2020/12/03 08:51:10;;;;;;;43.50;25.00;;;;;;;-0.05;93.19;100879.34;1782886;80;21436;-69
2020/12/03 08:53:39;;;;;;;41.17;25.83;;;;;;;-0.07;93.15;100876.84;1751598;81;21192;-70
2020/12/03 08:56:19;;;;;;;43.77;25.83;;;;;;;-0.12;93.10;100872.98;1725465;82;21027;-70
2020/12/03 08:59:11;;;;;;;39.60;23.80;;;;;;;-0.17;93.22;100864.19;1764896;81;21566;-71
2020/12/03 09:01:45;;;;;;;47.37;26.97;;;;;;;-0.14;93.43;100873.62;1767375;81;21570;-70
2020/12/03 09:04:14;;;;;;;57.47;31.57;;;;;;;-0.17;93.46;100866.84;1766186;81;21439;-68
2020/12/03 09:06:50;;;;;;;45.47;26.60;;;;;;;-0.19;93.50;100866.14;1766458;81;21608;-69
2020/12/03 09:09:19;;;;;;;45.10;23.87;;;;;;;-0.26;93.62;100859.81;1794374;79;21026;-70
2020/12/03 09:11:47;;;;;;;45.30;21.60;;;;;;;-0.30;93.95;100855.82;1795482;79;21188;-70
2020/12/03 09:14:15;;;;;;;39.83;25.63;;;;;;;-0.27;94.09;100856.83;1795560;79;21546;-71
2020/12/03 09:16:44;;;;;;;53.80;25.50;;;;;;;-0.25;94.20;100848.75;1763187;81;21383;-69
2020/12/03 09:19:26;;;;;;;41.77;26.80;;;;;;;-0.23;94.21;100842.31;1732841;81;21129;-71
2020/12/03 09:21:53;;;;;;;42.47;24.43;;;;;;;-0.18;94.25;100845.34;1760295;81;21137;-71
2020/12/03 09:24:23;;;;;;;46.13;26.70;;;;;;;-0.11;94.28;100848.22;1735497;81;21071;-70
2020/12/03 09:26:53;;;;;;;45.77;24.40;;;;;;;-0.14;94.13;100844.05;1761235;80;21201;-70
2020/12/03 09:29:21;;;;;;;35.53;20.87;;;;;;;-0.12;94.28;100843.42;1795139;80;21207;-70
2020/12/03 09:31:58;;;;;;;45.17;23.70;;;;;;;-0.13;94.49;100835.14;1791128;80;21185;-70
2020/12/03 09:34:28;;;;;;;39.53;22.03;;;;;;;-0.06;94.76;100825.62;1795271;80;21610;-70
2020/12/03 09:37:01;;;;;;;43.90;24.33;;;;;;;-0.02;94.68;100828.78;1795261;80;21032;-73
2020/12/03 09:39:31;;;;;;;44.05;24.87;;;;;;;-0.04;94.43;100828.93;1795404;80;21177;-70
2020/12/03 09:42:02;;;;;;;46.83;25.40;;;;;;;-0.04;94.41;100825.45;1795321;80;21375;-71
2020/12/03 09:44:33;;;;;;;43.77;24.03;;;;;;;-0.04;94.36;100830.25;1777577;79;21153;-69
2020/12/03 09:47:16;;;;;;;34.87;20.13;;;;;;;-0.07;94.30;100823.95;1730507;81;21121;-71
2020/12/03 09:49:45;;;;;;;49.37;27.10;;;;;;;-0.06;94.40;100828.27;1755705;81;21105;-71
2020/12/03 09:52:13;;;;;;;41.67;21.87;;;;;;;-0.04;94.39;100819.67;1757585;80;21141;-69
2020/12/03 09:54:41;;;;;;;53.33;28.70;;;;;;;-0.01;94.30;100822.03;1760971;81;22273;-71
2020/12/03 09:57:11;;;;;;;52.47;32.80;;;;;;;-0.01;94.21;100820.71;1765733;81;21216;-69
2020/12/03 09:59:39;;;;;;;56.67;27.77;;;;;;;0.02;94.20;100823.52;1765930;81;21121;-70
2020/12/03 10:02:17;;;;;;;63.93;31.87;;;;;;;0.02;94.04;100824.84;1753927;81;21139;-71
2020/12/03 10:05:02;;;;;;;59.30;33.20;;;;;;;0.02;93.98;100829.30;1759514;81;21129;-70
2020/12/03 10:07:56;;;;;;;59.70;29.00;;;;;;;-0.01;93.79;100819.39;1720204;81;21181;-69
2020/12/03 10:10:39;;;;;;;44.93;23.27;;;;;;;-0.07;93.64;100819.16;1704131;81;21397;-70
2020/12/03 10:13:12;;;;;;;50.40;30.90;;;;;;;-0.08;93.83;100822.30;1760167;81;21634;-70
2020/12/03 10:16:06;;;;;;;46.50;28.38;;;;;;;-0.09;93.77;100825.91;1759748;81;21443;-69
2020/12/03 10:18:51;;;;;;;57.70;32.77;;;;;;;-0.10;93.85;100824.77;1766302;81;21184;-70
2020/12/03 10:21:23;;;;;;;48.40;30.77;;;;;;;-0.03;93.95;100827.13;1753901;81;21190;-68
2020/12/03 10:24:08;;;;;;;37.87;22.47;;;;;;;-0.03;93.87;100820.51;1735694;80;21146;-71
2020/12/03 10:26:41;;;;;;;51.00;31.23;;;;;;;-0.02;93.98;100825.66;1753823;81;21567;-70
2020/12/03 10:29:47;;;;;;;36.58;21.80;;;;;;;0.00;93.88;100818.90;1753642;81;21144;-70
2020/12/03 10:32:16;;;;;;;40.53;22.97;;;;;;;0.03;93.89;100815.10;1738632;81;21133;-69
2020/12/03 10:34:47;;;;;;;38.43;23.67;;;;;;;0.04;94.02;100807.02;1765953;81;22291;-71
2020/12/03 10:37:26;;;;;;;41.00;25.77;;;;;;;0.03;93.81;100806.67;1763465;81;21145;-70
2020/12/03 10:40:15;;;;;;;38.23;19.37;;;;;;;0.01;93.79;100799.37;1764014;81;21238;-69
2020/12/03 10:42:52;;;;;;;52.60;28.80;;;;;;;0.01;93.63;100795.41;1763125;81;21184;-68
2020/12/03 10:45:25;;;;;;;42.00;27.80;;;;;;;-0.07;93.49;100790.91;1732249;82;21165;-70
2020/12/03 10:48:12;;;;;;;38.10;23.38;;;;;;;-0.08;93.57;100802.46;1738189;81;22274;-70
2020/12/03 10:50:53;;;;;;;38.47;23.23;;;;;;;-0.12;93.58;100803.76;1764047;81;21923;-70
2020/12/03 10:53:25;;;;;;;44.77;25.43;;;;;;;-0.12;93.68;100797.64;1757225;79;21545;-79
2020/12/03 10:56:05;;;;;;;50.58;25.68;;;;;;;-0.16;93.65;100802.90;1758187;81;20989;-70
2020/12/03 10:58:53;;;;;;;43.80;25.57;;;;;;;-0.19;93.76;100803.22;1734419;82;21185;-70
2020/12/03 11:01:24;;;;;;;54.73;29.50;;;;;;;-0.20;93.92;100808.16;1760091;79;21425;-73
2020/12/03 11:03:52;;;;;;;47.53;26.83;;;;;;;-0.20;94.04;100806.34;1752864;79;21189;-69
2020/12/03 11:06:24;;;;;;;43.00;26.30;;;;;;;-0.11;94.31;100804.11;1732835;82;21127;-72
2020/12/03 11:08:52;;;;;;;51.03;24.87;;;;;;;-0.08;94.12;100802.95;1732834;81;21569;-75
2020/12/03 11:11:20;;;;;;;60.13;30.77;;;;;;;-0.05;94.13;100796.85;1764787;81;21730;-73
2020/12/03 11:13:47;;;;;;;40.53;24.07;;;;;;;-0.01;94.10;100786.33;1764515;81;21501;-74
2020/12/03 11:16:20;;;;;;;49.67;27.27;;;;;;;0.01;93.93;100778.22;1764837;81;20981;-68
2020/12/03 11:18:49;;;;;;;45.10;23.70;;;;;;;-0.03;93.80;100783.48;1743003;81;21094;-69
2020/12/03 11:21:23;;;;;;;48.43;28.57;;;;;;;-0.06;93.87;100791.25;1749754;81;21129;-70
2020/12/03 11:24:05;;;;;;;46.47;26.40;;;;;;;-0.06;93.95;100792.58;1760052;81;21120;-68
2020/12/03 11:26:34;;;;;;;50.83;27.13;;;;;;;-0.07;93.95;100787.43;1770165;80;22272;-69
2020/12/03 11:29:15;;;;;;;52.83;24.77;;;;;;;-0.09;94.08;100794.19;1736990;81;21083;-68
2020/12/03 11:31:45;;;;;;;56.87;32.20;;;;;;;-0.06;94.13;100787.77;1748652;81;21185;-67
2020/12/03 11:34:13;;;;;;;50.83;26.17;;;;;;;-0.04;94.18;100781.82;1747160;82;21137;-69
2020/12/03 11:36:44;;;;;;;62.70;30.93;;;;;;;-0.04;94.25;100780.01;1747194;82;21138;-68
2020/12/03 11:39:11;;;;;;;53.50;28.40;;;;;;;-0.06;94.27;100779.84;1760128;81;22691;-67
2020/12/03 11:44:24;;;;;;;65.80;34.47;;;;;;;-0.07;94.49;100777.69;1750538;82;21776;-68
2020/12/03 11:49:13;;;;;;;51.97;27.83;;;;;;;-0.11;94.76;100776.83;1751677;81;21578;-67
2020/12/03 11:51:43;;;;;;;61.57;30.17;;;;;;;-0.07;94.89;100776.36;1714182;83;22258;-72
2020/12/03 11:54:11;;;;;;;60.10;30.63;;;;;;;-0.08;94.92;100781.80;1763878;81;21125;-72
2020/12/03 11:56:39;;;;;;;63.03;31.47;;;;;;;-0.07;94.95;100779.01;1732499;82;21120;-70
2020/12/03 11:59:15;;;;;;;55.70;27.13;;;;;;;-0.01;95.03;100777.56;1764217;81;21207;-69